sensor_id;sensor_type;location;lat;lon;timestamp;temperature;humidity
37274;DHT22;23161;51.250;5.554;2023-02-28T00:01:22;-1.80;99.90
37274;DHT22;23161;51.250;5.554;2023-02-28T00:03:48;-1.80;99.90
37274;DHT22;23161;51.250;5.554;2023-02-28T00:06:14;-1.70;99.90
37274;DHT22;23161;51.250;5.554;2023-02-28T00:08:40;-1.70;99.90
37274;DHT22;23161;51.250;5.554;2023-02-28T00:11:09;-1.70;99.90
37274;DHT22;23161;51.250;5.554;2023-02-28T00:13:37;-1.70;99.90
37274;DHT22;23161;51.250;5.554;2023-02-28T00:16:05;-1.60;99.90
37274;DHT22;23161;51.250;5.554;2023-02-28T00:18:32;-1.60;99.90
37274;DHT22;23161;51.250;5.554;2023-02-28T00:20:58;-1.60;99.90
37274;DHT22;23161;51.250;5.554;2023-02-28T00:23:25;-1.70;99.90
37274;DHT22;23161;51.250;5.554;2023-02-28T00:25:51;-1.80;99.90
37274;DHT22;23161;51.250;5.554;2023-02-28T00:28:18;-1.90;99.90
37274;DHT22;23161;51.250;5.554;2023-02-28T00:30:44;-1.90;99.90
37274;DHT22;23161;51.250;5.554;2023-02-28T00:33:10;-1.90;99.90
37274;DHT22;23161;51.250;5.554;2023-02-28T00:35:36;-2.10;99.90
37274;DHT22;23161;51.250;5.554;2023-02-28T00:38:02;-2.20;99.90
37274;DHT22;23161;51.250;5.554;2023-02-28T00:40:28;-2.20;99.90
37274;DHT22;23161;51.250;5.554;2023-02-28T00:42:54;-2.20;99.90
37274;DHT22;23161;51.250;5.554;2023-02-28T00:45:20;-2.30;99.90
37274;DHT22;23161;51.250;5.554;2023-02-28T00:47:46;-2.30;99.90
37274;DHT22;23161;51.250;5.554;2023-02-28T00:50:17;-2.40;99.90
37274;DHT22;23161;51.250;5.554;2023-02-28T00:52:43;-2.50;99.90
37274;DHT22;23161;51.250;5.554;2023-02-28T00:55:09;-2.50;99.90
37274;DHT22;23161;51.250;5.554;2023-02-28T00:57:35;-2.60;99.90
37274;DHT22;23161;51.250;5.554;2023-02-28T01:00:01;-2.70;99.90
37274;DHT22;23161;51.250;5.554;2023-02-28T01:02:27;-2.50;99.90
37274;DHT22;23161;51.250;5.554;2023-02-28T01:04:53;-2.50;99.90
37274;DHT22;23161;51.250;5.554;2023-02-28T01:07:19;-2.40;99.90
37274;DHT22;23161;51.250;5.554;2023-02-28T01:09:45;-2.40;99.90
37274;DHT22;23161;51.250;5.554;2023-02-28T01:12:11;-2.30;99.90
37274;DHT22;23161;51.250;5.554;2023-02-28T01:14:37;-2.20;99.90
37274;DHT22;23161;51.250;5.554;2023-02-28T01:17:03;-2.20;99.90
37274;DHT22;23161;51.250;5.554;2023-02-28T01:19:30;-2.10;99.90
37274;DHT22;23161;51.250;5.554;2023-02-28T01:21:56;-2.10;99.90
37274;DHT22;23161;51.250;5.554;2023-02-28T01:24:21;-2.10;99.90
37274;DHT22;23161;51.250;5.554;2023-02-28T01:26:47;-2.10;99.90
37274;DHT22;23161;51.250;5.554;2023-02-28T01:29:13;-2.10;99.90
37274;DHT22;23161;51.250;5.554;2023-02-28T01:31:40;-2.00;99.90
37274;DHT22;23161;51.250;5.554;2023-02-28T01:34:07;-2.00;99.90
37274;DHT22;23161;51.250;5.554;2023-02-28T01:36:33;-2.00;99.90
37274;DHT22;23161;51.250;5.554;2023-02-28T01:38:59;-2.10;99.90
37274;DHT22;23161;51.250;5.554;2023-02-28T01:41:28;-2.30;99.90
37274;DHT22;23161;51.250;5.554;2023-02-28T01:44:02;-2.40;99.90
37274;DHT22;23161;51.250;5.554;2023-02-28T01:46:30;-2.40;99.90
37274;DHT22;23161;51.250;5.554;2023-02-28T01:49:10;-2.50;99.90
37274;DHT22;23161;51.250;5.554;2023-02-28T01:51:49;-2.60;99.90
37274;DHT22;23161;51.250;5.554;2023-02-28T01:54:26;-2.60;99.90
37274;DHT22;23161;51.250;5.554;2023-02-28T01:57:03;-2.70;99.90
37274;DHT22;23161;51.250;5.554;2023-02-28T02:02:10;-2.80;99.90
37274;DHT22;23161;51.250;5.554;2023-02-28T02:04:44;-2.80;99.90
37274;DHT22;23161;51.250;5.554;2023-02-28T02:07:12;-2.60;99.90
37274;DHT22;23161;51.250;5.554;2023-02-28T02:09:42;-2.60;99.90
37274;DHT22;23161;51.250;5.554;2023-02-28T02:15:05;-2.60;99.90
37274;DHT22;23161;51.250;5.554;2023-02-28T02:17:42;-2.80;99.90
37274;DHT22;23161;51.250;5.554;2023-02-28T02:20:16;-2.90;99.90
37274;DHT22;23161;51.250;5.554;2023-02-28T02:36:23;-3.00;99.90
37274;DHT22;23161;51.250;5.554;2023-02-28T02:39:04;-3.00;99.90
37274;DHT22;23161;51.250;5.554;2023-02-28T02:41:39;-3.00;99.90
37274;DHT22;23161;51.250;5.554;2023-02-28T02:47:03;-3.10;99.90
37274;DHT22;23161;51.250;5.554;2023-02-28T02:49:36;-3.10;99.90
37274;DHT22;23161;51.250;5.554;2023-02-28T02:52:06;-3.10;99.90
37274;DHT22;23161;51.250;5.554;2023-02-28T02:54:35;-3.10;99.90
37274;DHT22;23161;51.250;5.554;2023-02-28T02:57:08;-3.00;99.90
37274;DHT22;23161;51.250;5.554;2023-02-28T02:59:37;-3.00;99.90
37274;DHT22;23161;51.250;5.554;2023-02-28T03:02:07;-2.90;99.90
37274;DHT22;23161;51.250;5.554;2023-02-28T03:04:42;-2.80;99.90
37274;DHT22;23161;51.250;5.554;2023-02-28T03:07:09;-2.70;99.90
37274;DHT22;23161;51.250;5.554;2023-02-28T03:09:36;-2.60;99.90
37274;DHT22;23161;51.250;5.554;2023-02-28T03:12:03;-2.50;99.90
37274;DHT22;23161;51.250;5.554;2023-02-28T03:17:09;-2.20;99.90
37274;DHT22;23161;51.250;5.554;2023-02-28T03:19:47;-2.10;99.90
37274;DHT22;23161;51.250;5.554;2023-02-28T03:30:40;-1.90;99.90
37274;DHT22;23161;51.250;5.554;2023-02-28T03:33:19;-1.80;99.90
37274;DHT22;23161;51.250;5.554;2023-02-28T03:35:55;-1.70;99.90
37274;DHT22;23161;51.250;5.554;2023-02-28T03:40:51;-1.60;99.90
37274;DHT22;23161;51.250;5.554;2023-02-28T03:43:23;-1.50;99.90
37274;DHT22;23161;51.250;5.554;2023-02-28T03:45:52;-1.40;99.90
37274;DHT22;23161;51.250;5.554;2023-02-28T03:48:28;-1.30;99.90
37274;DHT22;23161;51.250;5.554;2023-02-28T03:50:58;-1.30;99.90
37274;DHT22;23161;51.250;5.554;2023-02-28T03:53:26;-1.30;99.90
37274;DHT22;23161;51.250;5.554;2023-02-28T03:55:57;-1.30;99.90
37274;DHT22;23161;51.250;5.554;2023-02-28T03:58:33;-1.40;99.90
37274;DHT22;23161;51.250;5.554;2023-02-28T04:01:07;-1.30;99.90
37274;DHT22;23161;51.250;5.554;2023-02-28T04:03:36;-1.40;99.90
37274;DHT22;23161;51.250;5.554;2023-02-28T04:06:03;-1.50;99.90
37274;DHT22;23161;51.250;5.554;2023-02-28T04:08:29;-1.60;99.90
37274;DHT22;23161;51.250;5.554;2023-02-28T04:11:04;-1.80;99.90
37274;DHT22;23161;51.250;5.554;2023-02-28T04:13:32;-2.00;99.90
37274;DHT22;23161;51.250;5.554;2023-02-28T04:15:58;-2.10;99.90
37274;DHT22;23161;51.250;5.554;2023-02-28T04:18:24;-2.10;99.90
37274;DHT22;23161;51.250;5.554;2023-02-28T04:20:50;-2.20;99.90
37274;DHT22;23161;51.250;5.554;2023-02-28T04:23:15;-2.30;99.90
37274;DHT22;23161;51.250;5.554;2023-02-28T04:25:41;-2.30;99.90
37274;DHT22;23161;51.250;5.554;2023-02-28T04:28:08;-2.30;99.90
37274;DHT22;23161;51.250;5.554;2023-02-28T04:30:33;-2.40;99.90
37274;DHT22;23161;51.250;5.554;2023-02-28T04:33:00;-2.50;99.90
37274;DHT22;23161;51.250;5.554;2023-02-28T04:35:26;-2.60;99.90
37274;DHT22;23161;51.250;5.554;2023-02-28T04:37:52;-2.60;99.90
37274;DHT22;23161;51.250;5.554;2023-02-28T04:40:18;-2.80;99.90
37274;DHT22;23161;51.250;5.554;2023-02-28T04:42:44;-3.00;99.90
37274;DHT22;23161;51.250;5.554;2023-02-28T04:45:10;-3.10;99.90
37274;DHT22;23161;51.250;5.554;2023-02-28T04:47:36;-3.20;99.90
37274;DHT22;23161;51.250;5.554;2023-02-28T04:50:02;-3.30;99.90
37274;DHT22;23161;51.250;5.554;2023-02-28T04:52:29;-3.30;99.90
37274;DHT22;23161;51.250;5.554;2023-02-28T04:54:55;-3.30;99.90
37274;DHT22;23161;51.250;5.554;2023-02-28T04:57:21;-3.30;99.90
37274;DHT22;23161;51.250;5.554;2023-02-28T04:59:46;-3.40;99.90
37274;DHT22;23161;51.250;5.554;2023-02-28T05:02:12;-3.50;99.90
37274;DHT22;23161;51.250;5.554;2023-02-28T05:04:38;-3.50;99.90
37274;DHT22;23161;51.250;5.554;2023-02-28T05:07:04;-3.60;99.90
37274;DHT22;23161;51.250;5.554;2023-02-28T05:09:30;-3.70;99.90
37274;DHT22;23161;51.250;5.554;2023-02-28T05:11:56;-3.80;99.90
37274;DHT22;23161;51.250;5.554;2023-02-28T05:14:22;-3.80;99.90
37274;DHT22;23161;51.250;5.554;2023-02-28T05:16:47;-3.90;99.90
37274;DHT22;23161;51.250;5.554;2023-02-28T05:19:14;-3.90;99.90
37274;DHT22;23161;51.250;5.554;2023-02-28T05:21:41;-3.90;99.90
37274;DHT22;23161;51.250;5.554;2023-02-28T05:24:13;-4.00;99.90
37274;DHT22;23161;51.250;5.554;2023-02-28T05:26:41;-4.10;99.90
37274;DHT22;23161;51.250;5.554;2023-02-28T05:29:07;-4.10;99.90
37274;DHT22;23161;51.250;5.554;2023-02-28T05:31:33;-4.20;99.90
37274;DHT22;23161;51.250;5.554;2023-02-28T05:33:59;-4.20;99.90
37274;DHT22;23161;51.250;5.554;2023-02-28T05:36:26;-4.20;99.90
37274;DHT22;23161;51.250;5.554;2023-02-28T05:38:52;-4.30;99.90
37274;DHT22;23161;51.250;5.554;2023-02-28T05:41:19;-4.30;99.90
37274;DHT22;23161;51.250;5.554;2023-02-28T05:43:45;-4.30;99.90
37274;DHT22;23161;51.250;5.554;2023-02-28T05:46:12;-4.30;99.90
37274;DHT22;23161;51.250;5.554;2023-02-28T05:48:40;-4.30;99.90
37274;DHT22;23161;51.250;5.554;2023-02-28T05:51:07;-4.30;99.90
37274;DHT22;23161;51.250;5.554;2023-02-28T05:53:33;-4.30;99.90
37274;DHT22;23161;51.250;5.554;2023-02-28T05:56:00;-4.30;99.90
37274;DHT22;23161;51.250;5.554;2023-02-28T05:58:26;-4.30;99.90
37274;DHT22;23161;51.250;5.554;2023-02-28T06:00:57;-4.30;99.90
37274;DHT22;23161;51.250;5.554;2023-02-28T06:03:23;-4.30;99.90
37274;DHT22;23161;51.250;5.554;2023-02-28T06:05:49;-4.30;99.90
37274;DHT22;23161;51.250;5.554;2023-02-28T06:08:16;-4.40;99.90
37274;DHT22;23161;51.250;5.554;2023-02-28T06:10:41;-4.40;99.90
37274;DHT22;23161;51.250;5.554;2023-02-28T06:13:08;-4.40;99.90
37274;DHT22;23161;51.250;5.554;2023-02-28T06:15:34;-4.40;99.90
37274;DHT22;23161;51.250;5.554;2023-02-28T06:18:00;-4.40;99.90
37274;DHT22;23161;51.250;5.554;2023-02-28T06:20:26;-4.30;99.90
37274;DHT22;23161;51.250;5.554;2023-02-28T06:22:58;-4.30;99.90
37274;DHT22;23161;51.250;5.554;2023-02-28T06:25:26;-4.20;99.90
37274;DHT22;23161;51.250;5.554;2023-02-28T06:27:52;-4.10;99.90
37274;DHT22;23161;51.250;5.554;2023-02-28T06:30:18;-4.00;99.90
37274;DHT22;23161;51.250;5.554;2023-02-28T06:32:49;-3.90;99.90
37274;DHT22;23161;51.250;5.554;2023-02-28T06:35:15;-3.90;99.90
37274;DHT22;23161;51.250;5.554;2023-02-28T06:37:41;-3.70;99.90
37274;DHT22;23161;51.250;5.554;2023-02-28T06:40:08;-3.60;99.90
37274;DHT22;23161;51.250;5.554;2023-02-28T06:42:34;-3.40;99.90
37274;DHT22;23161;51.250;5.554;2023-02-28T06:45:00;-3.10;99.90
37274;DHT22;23161;51.250;5.554;2023-02-28T06:47:30;-2.90;99.90
37274;DHT22;23161;51.250;5.554;2023-02-28T06:49:56;-2.80;99.90
37274;DHT22;23161;51.250;5.554;2023-02-28T06:52:22;-2.70;99.90
37274;DHT22;23161;51.250;5.554;2023-02-28T06:54:48;-2.50;99.90
37274;DHT22;23161;51.250;5.554;2023-02-28T06:57:28;-2.50;99.90
37274;DHT22;23161;51.250;5.554;2023-02-28T06:59:59;-2.30;99.90
37274;DHT22;23161;51.250;5.554;2023-02-28T07:02:25;-1.70;99.90
37274;DHT22;23161;51.250;5.554;2023-02-28T07:04:51;-0.90;99.90
37274;DHT22;23161;51.250;5.554;2023-02-28T07:07:17;-0.80;99.90
37274;DHT22;23161;51.250;5.554;2023-02-28T07:09:43;-0.10;99.90
37274;DHT22;23161;51.250;5.554;2023-02-28T07:12:09;1.60;99.90
37274;DHT22;23161;51.250;5.554;2023-02-28T07:14:36;2.30;99.90
37274;DHT22;23161;51.250;5.554;2023-02-28T07:17:02;2.30;99.90
37274;DHT22;23161;51.250;5.554;2023-02-28T07:19:28;2.60;99.90
37274;DHT22;23161;51.250;5.554;2023-02-28T07:21:54;2.90;99.90
37274;DHT22;23161;51.250;5.554;2023-02-28T07:24:19;2.80;99.90
37274;DHT22;23161;51.250;5.554;2023-02-28T07:26:45;2.40;99.90
37274;DHT22;23161;51.250;5.554;2023-02-28T07:29:11;2.80;99.90
37274;DHT22;23161;51.250;5.554;2023-02-28T07:31:37;3.30;99.90
37274;DHT22;23161;51.250;5.554;2023-02-28T07:34:03;3.40;99.90
37274;DHT22;23161;51.250;5.554;2023-02-28T07:36:28;4.50;99.90
37274;DHT22;23161;51.250;5.554;2023-02-28T07:38:54;4.70;99.90
37274;DHT22;23161;51.250;5.554;2023-02-28T07:41:21;4.80;99.90
37274;DHT22;23161;51.250;5.554;2023-02-28T07:43:47;5.50;99.90
37274;DHT22;23161;51.250;5.554;2023-02-28T07:46:15;5.80;99.90
37274;DHT22;23161;51.250;5.554;2023-02-28T07:48:41;6.50;99.90
37274;DHT22;23161;51.250;5.554;2023-02-28T07:51:07;7.30;99.10
37274;DHT22;23161;51.250;5.554;2023-02-28T07:53:33;7.60;97.00
37274;DHT22;23161;51.250;5.554;2023-02-28T07:56:00;8.60;95.20
37274;DHT22;23161;51.250;5.554;2023-02-28T07:58:27;9.60;93.50
37274;DHT22;23161;51.250;5.554;2023-02-28T08:00:54;10.80;90.30
37274;DHT22;23161;51.250;5.554;2023-02-28T08:03:21;11.50;86.50
37274;DHT22;23161;51.250;5.554;2023-02-28T08:05:48;12.40;83.50
37274;DHT22;23161;51.250;5.554;2023-02-28T08:08:14;12.80;79.70
37274;DHT22;23161;51.250;5.554;2023-02-28T08:10:40;12.90;77.90
37274;DHT22;23161;51.250;5.554;2023-02-28T08:13:06;13.50;75.20
37274;DHT22;23161;51.250;5.554;2023-02-28T08:15:32;14.20;73.10
37274;DHT22;23161;51.250;5.554;2023-02-28T08:17:58;14.70;69.80
37274;DHT22;23161;51.250;5.554;2023-02-28T08:20:25;14.90;67.80
37274;DHT22;23161;51.250;5.554;2023-02-28T08:22:51;14.80;65.70
37274;DHT22;23161;51.250;5.554;2023-02-28T08:25:17;14.20;66.50
37274;DHT22;23161;51.250;5.554;2023-02-28T08:27:43;13.20;68.40
37274;DHT22;23161;51.250;5.554;2023-02-28T08:30:11;12.60;67.60
37274;DHT22;23161;51.250;5.554;2023-02-28T08:32:37;12.00;69.00
37274;DHT22;23161;51.250;5.554;2023-02-28T08:35:03;12.00;68.00
37274;DHT22;23161;51.250;5.554;2023-02-28T08:37:32;10.40;70.00
37274;DHT22;23161;51.250;5.554;2023-02-28T08:39:58;11.40;69.50
37274;DHT22;23161;51.250;5.554;2023-02-28T08:42:24;12.20;68.10
37274;DHT22;23161;51.250;5.554;2023-02-28T08:44:50;12.20;67.50
37274;DHT22;23161;51.250;5.554;2023-02-28T08:47:16;10.60;67.70
37274;DHT22;23161;51.250;5.554;2023-02-28T08:49:42;11.20;67.80
37274;DHT22;23161;51.250;5.554;2023-02-28T08:52:08;11.30;67.40
37274;DHT22;23161;51.250;5.554;2023-02-28T08:54:35;10.90;68.90
37274;DHT22;23161;51.250;5.554;2023-02-28T08:57:02;11.00;68.80
37274;DHT22;23161;51.250;5.554;2023-02-28T08:59:28;10.50;68.70
37274;DHT22;23161;51.250;5.554;2023-02-28T09:01:54;10.90;68.20
37274;DHT22;23161;51.250;5.554;2023-02-28T09:04:20;10.20;68.10
37274;DHT22;23161;51.250;5.554;2023-02-28T09:06:46;10.20;68.60
37274;DHT22;23161;51.250;5.554;2023-02-28T09:09:12;9.70;68.50
37274;DHT22;23161;51.250;5.554;2023-02-28T09:11:38;10.10;68.90
37274;DHT22;23161;51.250;5.554;2023-02-28T09:14:03;10.70;67.60
37274;DHT22;23161;51.250;5.554;2023-02-28T09:16:30;12.00;66.70
37274;DHT22;23161;51.250;5.554;2023-02-28T09:18:56;11.30;65.30
37274;DHT22;23161;51.250;5.554;2023-02-28T09:21:23;10.30;65.80
37274;DHT22;23161;51.250;5.554;2023-02-28T09:23:50;10.60;67.50
37274;DHT22;23161;51.250;5.554;2023-02-28T09:26:18;10.50;65.70
37274;DHT22;23161;51.250;5.554;2023-02-28T09:28:45;11.30;65.80
37274;DHT22;23161;51.250;5.554;2023-02-28T09:31:16;11.70;64.40
37274;DHT22;23161;51.250;5.554;2023-02-28T09:33:47;11.50;63.70
37274;DHT22;23161;51.250;5.554;2023-02-28T09:36:12;11.70;62.70
37274;DHT22;23161;51.250;5.554;2023-02-28T09:38:38;11.40;62.70
37274;DHT22;23161;51.250;5.554;2023-02-28T09:41:24;10.90;63.30
37274;DHT22;23161;51.250;5.554;2023-02-28T09:43:56;10.80;62.90
37274;DHT22;23161;51.250;5.554;2023-02-28T09:46:44;11.00;63.20
37274;DHT22;23161;51.250;5.554;2023-02-28T09:49:25;11.20;63.20
37274;DHT22;23161;51.250;5.554;2023-02-28T09:52:15;11.70;62.10
37274;DHT22;23161;51.250;5.554;2023-02-28T09:54:42;10.70;63.20
37274;DHT22;23161;51.250;5.554;2023-02-28T09:57:25;10.50;63.00
37274;DHT22;23161;51.250;5.554;2023-02-28T10:02:49;9.10;63.10
37274;DHT22;23161;51.250;5.554;2023-02-28T10:05:31;9.50;62.00
37274;DHT22;23161;51.250;5.554;2023-02-28T10:08:00;9.80;62.60
37274;DHT22;23161;51.250;5.554;2023-02-28T10:12:58;9.30;62.10
37274;DHT22;23161;51.250;5.554;2023-02-28T10:15:29;9.80;61.60
37274;DHT22;23161;51.250;5.554;2023-02-28T10:17:59;9.20;60.70
37274;DHT22;23161;51.250;5.554;2023-02-28T10:20:26;8.30;60.90
37274;DHT22;23161;51.250;5.554;2023-02-28T10:23:09;7.60;61.60
37274;DHT22;23161;51.250;5.554;2023-02-28T10:25:38;8.00;61.80
37274;DHT22;23161;51.250;5.554;2023-02-28T10:28:17;8.10;61.00
37274;DHT22;23161;51.250;5.554;2023-02-28T10:30:51;8.20;60.60
37274;DHT22;23161;51.250;5.554;2023-02-28T10:33:24;8.10;61.50
37274;DHT22;23161;51.250;5.554;2023-02-28T10:35:51;7.80;62.60
37274;DHT22;23161;51.250;5.554;2023-02-28T10:38:27;8.30;62.10
37274;DHT22;23161;51.250;5.554;2023-02-28T10:41:27;8.30;61.90
37274;DHT22;23161;51.250;5.554;2023-02-28T10:44:20;7.90;61.80
37274;DHT22;23161;51.250;5.554;2023-02-28T10:46:46;7.90;63.30
37274;DHT22;23161;51.250;5.554;2023-02-28T10:49:22;7.40;62.30
37274;DHT22;23161;51.250;5.554;2023-02-28T10:51:55;7.50;63.60
37274;DHT22;23161;51.250;5.554;2023-02-28T10:54:31;8.00;62.50
37274;DHT22;23161;51.250;5.554;2023-02-28T10:57:17;7.80;61.50
37274;DHT22;23161;51.250;5.554;2023-02-28T10:59:44;7.90;61.90
37274;DHT22;23161;51.250;5.554;2023-02-28T11:02:30;8.00;62.30
37274;DHT22;23161;51.250;5.554;2023-02-28T11:04:56;7.70;61.50
37274;DHT22;23161;51.250;5.554;2023-02-28T11:07:25;7.40;63.10
37274;DHT22;23161;51.250;5.554;2023-02-28T11:09:56;7.20;63.20
37274;DHT22;23161;51.250;5.554;2023-02-28T11:12:34;7.40;63.50
37274;DHT22;23161;51.250;5.554;2023-02-28T11:15:05;7.20;64.00
37274;DHT22;23161;51.250;5.554;2023-02-28T11:17:32;7.40;63.80
37274;DHT22;23161;51.250;5.554;2023-02-28T11:20:05;7.10;64.30
37274;DHT22;23161;51.250;5.554;2023-02-28T11:22:38;7.40;64.70
37274;DHT22;23161;51.250;5.554;2023-02-28T11:25:24;6.50;74.10
37274;DHT22;23161;51.250;5.554;2023-02-28T11:27:56;6.60;65.20
37274;DHT22;23161;51.250;5.554;2023-02-28T11:32:56;7.50;64.30
37274;DHT22;23161;51.250;5.554;2023-02-28T11:35:34;7.50;65.50
37274;DHT22;23161;51.250;5.554;2023-02-28T11:38:04;7.10;65.80
37274;DHT22;23161;51.250;5.554;2023-02-28T11:59:58;6.30;68.60
37274;DHT22;23161;51.250;5.554;2023-02-28T12:02:33;6.50;68.10
37274;DHT22;23161;51.250;5.554;2023-02-28T12:08:10;5.70;68.80
37274;DHT22;23161;51.250;5.554;2023-02-28T12:19:11;5.90;69.20
37274;DHT22;23161;51.250;5.554;2023-02-28T12:27:13;6.10;70.10
37274;DHT22;23161;51.250;5.554;2023-02-28T12:32:37;5.90;69.70
37274;DHT22;23161;51.250;5.554;2023-02-28T12:35:18;5.90;70.50
37274;DHT22;23161;51.250;5.554;2023-02-28T12:37:57;5.90;79.80
37274;DHT22;23161;51.250;5.554;2023-02-28T12:41:00;6.00;70.60
37274;DHT22;23161;51.250;5.554;2023-02-28T12:43:33;6.10;70.00
37274;DHT22;23161;51.250;5.554;2023-02-28T12:46:19;6.30;71.00
37274;DHT22;23161;51.250;5.554;2023-02-28T12:48:52;6.50;70.60
37274;DHT22;23161;51.250;5.554;2023-02-28T12:51:19;6.70;69.40
37274;DHT22;23161;51.250;5.554;2023-02-28T12:56:38;6.40;69.50
37274;DHT22;23161;51.250;5.554;2023-02-28T12:59:32;6.60;70.50
37274;DHT22;23161;51.250;5.554;2023-02-28T13:02:24;6.50;70.70
37274;DHT22;23161;51.250;5.554;2023-02-28T13:05:24;6.40;70.00
37274;DHT22;23161;51.250;5.554;2023-02-28T13:10:48;6.50;70.50
37274;DHT22;23161;51.250;5.554;2023-02-28T13:13:22;6.20;70.00
37274;DHT22;23161;51.250;5.554;2023-02-28T13:16:08;6.20;70.70
37274;DHT22;23161;51.250;5.554;2023-02-28T13:18:45;6.10;70.50
37274;DHT22;23161;51.250;5.554;2023-02-28T13:21:30;5.90;70.20
37274;DHT22;23161;51.250;5.554;2023-02-28T13:24:08;5.90;70.90
37274;DHT22;23161;51.250;5.554;2023-02-28T13:29:30;5.50;71.20
37274;DHT22;23161;51.250;5.554;2023-02-28T13:34:35;5.40;71.00
37274;DHT22;23161;51.250;5.554;2023-02-28T13:47:36;5.40;72.80
37274;DHT22;23161;51.250;5.554;2023-02-28T14:06:48;5.70;70.90
37274;DHT22;23161;51.250;5.554;2023-02-28T14:11:50;5.30;73.40
37274;DHT22;23161;51.250;5.554;2023-02-28T14:17:05;5.50;73.20
37274;DHT22;23161;51.250;5.554;2023-02-28T14:19:34;5.50;72.10
37274;DHT22;23161;51.250;5.554;2023-02-28T14:38:05;5.20;72.40
37274;DHT22;23161;51.250;5.554;2023-02-28T14:40:33;5.10;72.90
37274;DHT22;23161;51.250;5.554;2023-02-28T14:43:05;5.10;71.70
37274;DHT22;23161;51.250;5.554;2023-02-28T14:45:33;5.10;72.00
37274;DHT22;23161;51.250;5.554;2023-02-28T14:48:01;5.10;73.10
37274;DHT22;23161;51.250;5.554;2023-02-28T14:50:34;5.30;83.60
37274;DHT22;23161;51.250;5.554;2023-02-28T14:53:00;5.20;74.10
37274;DHT22;23161;51.250;5.554;2023-02-28T14:55:29;5.30;73.50
37274;DHT22;23161;51.250;5.554;2023-02-28T14:58:01;5.30;72.80
37274;DHT22;23161;51.250;5.554;2023-02-28T15:00:33;5.30;74.50
37274;DHT22;23161;51.250;5.554;2023-02-28T15:03:01;5.40;74.40
37274;DHT22;23161;51.250;5.554;2023-02-28T15:05:44;5.40;73.70
37274;DHT22;23161;51.250;5.554;2023-02-28T15:08:17;5.30;72.70
37274;DHT22;23161;51.250;5.554;2023-02-28T15:10:57;5.30;73.80
37274;DHT22;23161;51.250;5.554;2023-02-28T15:13:31;5.30;73.80
37274;DHT22;23161;51.250;5.554;2023-02-28T15:16:03;5.40;74.50
37274;DHT22;23161;51.250;5.554;2023-02-28T15:21:20;5.40;75.50
37274;DHT22;23161;51.250;5.554;2023-02-28T15:23:54;5.40;74.50
37274;DHT22;23161;51.250;5.554;2023-02-28T15:26:27;5.40;75.10
37274;DHT22;23161;51.250;5.554;2023-02-28T15:29:00;5.40;74.50
37274;DHT22;23161;51.250;5.554;2023-02-28T15:31:32;5.30;74.00
37274;DHT22;23161;51.250;5.554;2023-02-28T15:34:04;5.30;73.80
37274;DHT22;23161;51.250;5.554;2023-02-28T15:36:32;5.30;74.30
37274;DHT22;23161;51.250;5.554;2023-02-28T15:39:00;5.20;73.50
37274;DHT22;23161;51.250;5.554;2023-02-28T15:41:29;5.20;75.10
37274;DHT22;23161;51.250;5.554;2023-02-28T15:46:59;5.20;74.30
37274;DHT22;23161;51.250;5.554;2023-02-28T15:49:29;5.10;75.20
37274;DHT22;23161;51.250;5.554;2023-02-28T15:51:58;5.10;74.80
37274;DHT22;23161;51.250;5.554;2023-02-28T15:54:30;5.10;76.10
37274;DHT22;23161;51.250;5.554;2023-02-28T15:56:57;5.10;76.60
37274;DHT22;23161;51.250;5.554;2023-02-28T15:59:27;5.10;75.60
37274;DHT22;23161;51.250;5.554;2023-02-28T16:04:56;5.00;75.60
37274;DHT22;23161;51.250;5.554;2023-02-28T16:07:23;5.00;76.50
37274;DHT22;23161;51.250;5.554;2023-02-28T16:09:50;4.90;77.20
37274;DHT22;23161;51.250;5.554;2023-02-28T16:12:16;4.90;77.00
37274;DHT22;23161;51.250;5.554;2023-02-28T16:14:42;4.90;77.10
37274;DHT22;23161;51.250;5.554;2023-02-28T16:17:23;4.90;77.30
37274;DHT22;23161;51.250;5.554;2023-02-28T16:19:50;4.90;77.50
37274;DHT22;23161;51.250;5.554;2023-02-28T16:22:15;4.80;77.80
37274;DHT22;23161;51.250;5.554;2023-02-28T16:24:41;4.80;78.10
37274;DHT22;23161;51.250;5.554;2023-02-28T16:27:26;4.80;77.10
37274;DHT22;23161;51.250;5.554;2023-02-28T16:29:53;4.70;78.10
37274;DHT22;23161;51.250;5.554;2023-02-28T16:32:19;4.60;79.00
37274;DHT22;23161;51.250;5.554;2023-02-28T16:34:45;4.60;78.90
37274;DHT22;23161;51.250;5.554;2023-02-28T16:37:13;4.60;79.10
37274;DHT22;23161;51.250;5.554;2023-02-28T16:39:40;4.50;79.50
37274;DHT22;23161;51.250;5.554;2023-02-28T16:42:06;4.40;80.50
37274;DHT22;23161;51.250;5.554;2023-02-28T16:44:34;4.40;80.00
37274;DHT22;23161;51.250;5.554;2023-02-28T16:47:02;4.40;80.70
37274;DHT22;23161;51.250;5.554;2023-02-28T16:49:31;4.30;81.30
37274;DHT22;23161;51.250;5.554;2023-02-28T16:51:57;4.30;81.70
37274;DHT22;23161;51.250;5.554;2023-02-28T16:54:23;4.20;82.30
37274;DHT22;23161;51.250;5.554;2023-02-28T16:56:49;4.10;82.90
37274;DHT22;23161;51.250;5.554;2023-02-28T16:59:19;4.10;83.40
37274;DHT22;23161;51.250;5.554;2023-02-28T17:01:46;4.00;84.10
37274;DHT22;23161;51.250;5.554;2023-02-28T17:04:12;3.90;84.70
37274;DHT22;23161;51.250;5.554;2023-02-28T17:06:39;3.80;84.80
37274;DHT22;23161;51.250;5.554;2023-02-28T17:09:15;3.70;85.20
37274;DHT22;23161;51.250;5.554;2023-02-28T17:11:41;3.70;85.30
37274;DHT22;23161;51.250;5.554;2023-02-28T17:14:07;3.60;85.90
37274;DHT22;23161;51.250;5.554;2023-02-28T17:16:35;3.60;86.10
37274;DHT22;23161;51.250;5.554;2023-02-28T17:19:04;3.60;86.10
37274;DHT22;23161;51.250;5.554;2023-02-28T17:21:32;3.50;86.80
37274;DHT22;23161;51.250;5.554;2023-02-28T17:23:59;3.50;87.80
37274;DHT22;23161;51.250;5.554;2023-02-28T17:26:26;3.40;88.20
37274;DHT22;23161;51.250;5.554;2023-02-28T17:28:54;3.30;88.70
37274;DHT22;23161;51.250;5.554;2023-02-28T17:31:24;3.20;89.70
37274;DHT22;23161;51.250;5.554;2023-02-28T17:33:50;3.10;90.10
37274;DHT22;23161;51.250;5.554;2023-02-28T17:36:21;3.00;90.40
37274;DHT22;23161;51.250;5.554;2023-02-28T17:38:48;3.00;90.50
37274;DHT22;23161;51.250;5.554;2023-02-28T17:41:14;2.90;90.80
37274;DHT22;23161;51.250;5.554;2023-02-28T17:43:40;2.90;90.70
37274;DHT22;23161;51.250;5.554;2023-02-28T17:46:19;2.90;91.00
37274;DHT22;23161;51.250;5.554;2023-02-28T17:48:50;2.80;91.10
37274;DHT22;23161;51.250;5.554;2023-02-28T17:51:18;2.70;91.40
37274;DHT22;23161;51.250;5.554;2023-02-28T17:53:44;2.60;91.70
37274;DHT22;23161;51.250;5.554;2023-02-28T17:56:13;2.50;92.10
37274;DHT22;23161;51.250;5.554;2023-02-28T17:58:39;2.40;92.40
37274;DHT22;23161;51.250;5.554;2023-02-28T18:01:05;2.40;92.50
37274;DHT22;23161;51.250;5.554;2023-02-28T18:03:31;2.50;92.50
37274;DHT22;23161;51.250;5.554;2023-02-28T18:05:58;2.50;92.50
37274;DHT22;23161;51.250;5.554;2023-02-28T18:08:24;2.40;92.80
37274;DHT22;23161;51.250;5.554;2023-02-28T18:10:50;2.30;93.00
37274;DHT22;23161;51.250;5.554;2023-02-28T18:13:16;2.30;93.30
37274;DHT22;23161;51.250;5.554;2023-02-28T18:15:41;2.20;93.50
37274;DHT22;23161;51.250;5.554;2023-02-28T18:18:07;2.20;93.80
37274;DHT22;23161;51.250;5.554;2023-02-28T18:20:34;2.10;94.30
37274;DHT22;23161;51.250;5.554;2023-02-28T18:23:00;2.10;94.10